Data for 01/15/2008

Time Sea-Level Adjusted Pressure Absolute Pressure Temperature Relative Humidity Dew Point   
(mb) (inHg) (mb) (inHg) (C) (F) (%) (C) (F)
00:05 1008 29.77 838 24.75 3.1 37.5 38 -10.1 13.8
00:10 1008 29.77 838 24.75 1.7 35.1 43 -9.6 14.7
00:15 1008 29.77 838 24.75 1 33.8 45 -9.6 14.7
00:20 1008 29.77 837 24.72 0.8 33.5 44 -10 14
00:25 1008 29.77 837 24.72 0.6 33.1 47 -9.3 15.3
00:30 1008 29.77 837 24.72 0.6 33.1 43 -10.7 12.8
00:35 1008 29.77 837 24.72 1.5 34.7 43 -9.8 14.4
00:40 1008 29.77 837 24.72 0.6 33.1 47 -9.5 15
00:45 1008 29.77 837 24.72 0.1 32.1 47 -10 14
00:50 1008 29.77 837 24.72 -0 32 47 -10 14
00:55 1008 29.77 837 24.72 0 32 45 -10.5 13.1
01:00 1008 29.77 837 24.72 0.6 33.1 42 -10.9 12.4
01:05 1008 29.77 837 24.72 1.2 34.1 41 -10.7 12.8
01:10 1008 29.77 837 24.72 1.1 34.1 42 -10.3 13.5
01:15 1008 29.77 837 24.72 1 33.7 42 -10.5 13.1
01:20 1008 29.77 837 24.72 1.2 34.1 40 -10.9 12.3
01:25 1007 29.74 836 24.69 1.7 35.1 38 -11.2 11.9
01:30 1007 29.74 836 24.69 2.2 36 38 -10.6 12.9
01:35 1007 29.74 836 24.69 2.4 36.4 35 -11.5 11.4
01:40 1006 29.71 836 24.69 2.6 36.6 39 -10.1 13.8
01:45 1006 29.71 836 24.69 1.5 34.7 41 -10.4 13.3
01:50 1007 29.74 836 24.69 1.5 34.7 40 -10.6 12.9
01:55 1006 29.71 836 24.69 1.8 35.3 39 -10.8 12.6
02:00 1006 29.71 835 24.66 2.7 36.8 38 -10.4 13.2
02:05 1006 29.71 835 24.66 2.9 37.2 40 -9.6 14.8
02:10 1006 29.71 835 24.66 2 35.7 41 -9.8 14.4
02:15 1006 29.71 835 24.66 3.2 37.8 39 -9.3 15.2
02:20 1006 29.71 835 24.66 3.6 38.4 39 -9 15.7
02:25 1006 29.71 835 24.66 3.4 38.1 40 -8.9 15.9
02:30 1006 29.71 835 24.66 3.1 37.6 41 -8.9 16.1
02:35 1006 29.71 835 24.66 3 37.4 41 -9 15.9
02:40 1006 29.71 835 24.66 2.9 37.2 41 -9 15.8
02:45 1006 29.71 835 24.66 2.7 36.9 40 -9.4 15
02:50 1006 29.71 835 24.66 2.8 37 39 -9.8 14.3
02:55 1006 29.71 835 24.66 2.9 37.1 39 -9.6 14.7
03:00 1005 29.68 835 24.66 3 37.5 40 -9.3 15.3
03:05 1005 29.68 835 24.66 3 37.4 40 -9.4 15
03:10 1005 29.68 835 24.66 3 37.3 42 -8.6 16.5
03:15 1005 29.68 835 24.66 2.8 37 43 -8.6 16.6
03:20 1005 29.68 834 24.63 2.5 36.5 44 -8.5 16.7
03:25 1005 29.68 834 24.63 2.7 36.8 42 -9 15.8
03:30 1005 29.68 834 24.63 2.6 36.8 40 -9.6 14.8
03:35 1005 29.68 834 24.63 2.8 37 40 -9.5 15
03:40 1005 29.68 834 24.63 2.8 37 42 -8.9 15.9
03:45 1005 29.68 834 24.63 2.5 36.5 42 -9.1 15.6
03:50 1005 29.68 834 24.63 2.4 36.4 46 -8.1 17.5
03:55 1005 29.68 834 24.63 2.2 35.9 46 -8.3 17
04:00 1005 29.68 834 24.63 2.3 36.1 44 -8.7 16.3
04:05 1004 29.65 834 24.63 2.4 36.3 41 -9.6 14.7
04:10 1005 29.68 834 24.63 2.4 36.3 44 -8.6 16.5
04:15 1005 29.68 834 24.63 2.1 35.7 43 -9.3 15.2
04:20 1005 29.68 834 24.63 2.1 35.8 43 -9.2 15.4
04:25 1005 29.68 834 24.63 2 35.6 44 -9 15.8
04:30 1006 29.71 835 24.66 1.9 35.5 45 -8.7 16.4
04:35 1007 29.74 836 24.69 1.3 34.3 53 -7.4 18.7
04:40 1007 29.74 836 24.69 -0.2 31.6 80 -3.2 26.2
04:45 1007 29.74 836 24.69 -2 28.4 94 -2.9 26.8
04:50 1007 29.74 836 24.69 -2.7 27.1 96 -3.2 26.2
04:55 1007 29.74 837 24.72 -3 26.6 97 -3.5 25.8
05:00 1008 29.77 837 24.72 -3.1 26.3 97 -3.6 25.6
05:05 1008 29.77 837 24.72 -3.3 26 97 -3.7 25.4
05:10 1008 29.77 837 24.72 -3.4 25.9 97 -3.8 25.2
05:15 1008 29.77 837 24.72 -3.5 25.7 97 -3.9 24.9
05:20 1008 29.77 838 24.75 -3.7 25.4 97 -4.1 24.7
05:25 1009 29.8 838 24.75 -3.7 25.4 97 -4 24.7
05:30 1009 29.8 838 24.75 -3.7 25.3 97 -4.2 24.5
05:35 1009 29.8 838 24.75 -3.8 25.2 96 -4.3 24.3
05:40 1009 29.8 838 24.75 -3.8 25.1 96 -4.4 24.1
05:45 1009 29.8 838 24.75 -3.8 25.2 96 -4.4 24.1
05:50 1009 29.8 838 24.75 -3.7 25.3 96 -4.3 24.2
05:55 1009 29.8 838 24.75 -3.7 25.3 94 -4.5 23.8
06:00 1009 29.8 838 24.75 -3.7 25.4 92 -4.8 23.4
06:05 1009 29.8 838 24.75 -3.6 25.5 90 -5 23
06:10 1009 29.8 838 24.75 -3.5 25.7 86 -5.4 22.2
06:15 1009 29.8 838 24.75 -3.3 26 82 -6 21.2
06:20 1009 29.8 838 24.75 -3.2 26.3 78 -6.4 20.4
06:25 1009 29.8 839 24.78 -3 26.5 73 -7.3 18.9
06:30 1009 29.8 839 24.78 -3 26.6 70 -7.7 18.1
06:35 1010 29.83 839 24.78 -3 26.6 69 -7.8 17.9
06:40 1010 29.83 839 24.78 -3.1 26.4 74 -7 19.3
06:45 1010 29.83 839 24.78 -3.2 26.2 80 -6.2 20.9
06:50 1010 29.83 840 24.81 -3.4 25.8 82 -6.1 21.1
06:55 1011 29.85 840 24.81 -3.6 25.5 83 -6 21.1
07:00 1011 29.85 840 24.81 -4 24.9 90 -5.4 22.3
07:05 1011 29.85 840 24.81 -4.7 23.6 93 -5.6 21.9
07:10 1011 29.85 840 24.81 -4.9 23.2 94 -5.8 21.6
07:15 1011 29.85 840 24.81 -4.9 23.1 94 -5.8 21.6
07:20 1011 29.85 841 24.83 -4.9 23.2 94 -5.7 21.7
07:25 1012 29.88 841 24.83 -4.9 23.2 93 -5.8 21.5
07:30 1012 29.88 841 24.83 -4.9 23.1 93 -5.9 21.3
07:35 1012 29.88 841 24.83 -5 23.1 92 -6 21.2
07:40 1012 29.88 841 24.83 -5 23 93 -6 21.1
07:45 1012 29.88 841 24.83 -5 23 92 -6.2 20.9
07:50 1012 29.88 841 24.83 -5 23 90 -6.5 20.3
07:55 1012 29.88 841 24.83 -5 23 88 -6.7 19.9
08:00 1012 29.88 842 24.86 -5 23 76 -8.6 16.6
08:05 1012 29.88 842 24.86 -4.9 23.1 60 -11.6 11.1
08:10 1013 29.91 842 24.86 -5 23 55 -12.8 9
08:15 1013 29.91 842 24.86 -5 23 53 -13.3 8.1
08:20 1013 29.91 842 24.86 -5.1 22.9 52 -13.4 7.9
08:25 1013 29.91 842 24.86 -5.1 22.8 54 -13.1 8.4
08:30 1013 29.91 842 24.86 -5.2 22.6 55 -12.9 8.8
08:35 1013 29.91 842 24.86 -5.3 22.5 54 -13.1 8.4
08:40 1013 29.91 842 24.86 -5.3 22.4 55 -12.9 8.7
08:45 1013 29.91 842 24.86 -5.4 22.2 55 -13.1 8.5
08:50 1013 29.91 843 24.89 -5.5 22.1 54 -13.5 7.8
08:55 1013 29.91 843 24.89 -5.5 22.1 53 -13.6 7.6
09:00 1014 29.94 843 24.89 -5.6 22 53 -13.6 7.5
09:05 1014 29.94 843 24.89 -5.6 21.9 53 -13.8 7.1
09:10 1014 29.94 843 24.89 -5.6 22 52 -13.9 7
09:15 1014 29.94 843 24.89 -5.5 22 51 -14.3 6.3
09:20 1014 29.94 843 24.89 -5.5 22.1 51 -14.1 6.7
09:25 1014 29.94 843 24.89 -5.5 22.1 50 -14.3 6.3
09:30 1014 29.94 844 24.92 -5.5 22.2 50 -14.2 6.4
09:35 1015 29.97 844 24.92 -5.5 22.2 49 -14.5 5.9
09:40 1015 29.97 844 24.92 -5.5 22.1 50 -14.3 6.3
09:45 1015 29.97 844 24.92 -5.6 22 51 -14.2 6.4
09:50 1015 29.97 844 24.92 -5.6 21.9 50 -14.6 5.8
09:55 1015 29.97 844 24.92 -5.7 21.8 50 -14.6 5.7
10:00 1015 29.97 844 24.92 -5.6 21.9 50 -14.5 5.9
10:05 1015 29.97 844 24.92 -5.5 22 49 -14.7 5.5
10:10 1015 29.97 844 24.92 -5.5 22.2 50 -14.4 6.2
10:15 1015 29.97 844 24.92 -5.4 22.3 49 -14.4 6
10:20 1015 29.97 844 24.92 -5.4 22.4 49 -14.4 6.2
10:25 1015 29.97 845 24.95 -5.3 22.4 49 -14.5 5.9
10:30 1016 30 845 24.95 -5.4 22.4 47 -15.1 4.9
10:35 1016 30 845 24.95 -5.4 22.3 46 -15.2 4.7
10:40 1016 30 845 24.95 -5.4 22.4 46 -15.4 4.3
10:45 1016 30 845 24.95 -5.3 22.4 47 -15.1 4.9
10:50 1016 30 845 24.95 -5.2 22.6 46 -15 5
10:55 1016 30 845 24.95 -5.3 22.5 49 -14.4 6.1
11:00 1016 30 845 24.95 -5.3 22.5 48 -14.7 5.5
11:05 1016 30 845 24.95 -5.3 22.5 49 -14.5 5.9
11:10 1016 30 845 24.95 -5.1 22.8 48 -14.5 6
11:15 1016 30 845 24.95 -4.9 23.2 48 -14.4 6.1
11:20 1016 30 845 24.95 -4.8 23.4 48 -14.1 6.6
11:25 1016 30 845 24.95 -4.9 23.2 53 -13.1 8.5
11:30 1016 30 846 24.98 -5.5 22.1 65 -11 12.2
11:35 1016 30 846 24.98 -6.3 20.7 69 -11 12.1
11:40 1016 30 846 24.98 -6.6 20.2 72 -10.8 12.5
11:45 1016 30 846 24.98 -6.6 20.1 74 -10.6 13
11:50 1016 30 846 24.98 -6.6 20.2 73 -10.7 12.7
11:55 1016 30 846 24.98 -6.2 20.9 71 -10.7 12.8
12:00 1016 30 846 24.98 -5.9 21.4 71 -10.3 13.4
12:05 1016 30 846 24.98 -6 21.2 74 -9.9 14.2
12:10 1016 30 846 24.98 -6.1 21 80 -9 15.7
12:15 1016 30 846 24.98 -6.5 20.2 80 -9.4 15.1
12:20 1017 30.03 846 24.98 -6.4 20.4 81 -9.2 15.5
12:25 1017 30.03 846 24.98 -6.4 20.4 80 -9.3 15.3
12:30 1017 30.03 846 24.98 -6.3 20.6 81 -9.1 15.6
12:35 1017 30.03 846 24.98 -6.3 20.7 80 -9.2 15.4
12:40 1017 30.03 846 24.98 -6.3 20.6 80 -9.3 15.3
12:45 1017 30.03 846 24.98 -6.5 20.2 81 -9.2 15.4
12:50 1017 30.03 846 24.98 -6.5 20.2 82 -9.1 15.6
12:55 1017 30.03 846 24.98 -6.4 20.5 84 -8.7 16.3
13:00 1017 30.03 846 24.98 -6.3 20.6 84 -8.6 16.5
13:05 1017 30.03 846 24.98 -6.4 20.5 86 -8.4 16.9
13:10 1017 30.03 846 24.98 -6.4 20.5 88 -8.1 17.5
13:15 1017 30.03 846 24.98 -6.4 20.4 87 -8.3 17.1
13:20 1017 30.03 846 24.98 -6.3 20.6 87 -8.1 17.4
13:25 1017 30.03 846 24.98 -6.3 20.7 87 -8.1 17.3
13:30 1017 30.03 846 24.98 -6.2 20.8 85 -8.4 16.9
13:35 1017 30.03 846 24.98 -6.2 20.8 82 -8.8 16.2
13:40 1017 30.03 846 24.98 -6.2 20.8 80 -9.1 15.5
13:45 1017 30.03 847 25.01 -6.1 21 76 -9.6 14.8
13:50 1017 30.03 847 25.01 -6.2 20.9 74 -10.1 13.9
13:55 1017 30.03 847 25.01 -6.1 21 74 -10.1 13.9
14:00 1018 30.06 847 25.01 -6.1 20.9 72 -10.4 13.3
14:05 1018 30.06 847 25.01 -6.1 21 71 -10.6 12.9
14:10 1018 30.06 847 25.01 -6.1 21 69 -10.8 12.5
14:15 1018 30.06 847 25.01 -6.1 21 69 -10.9 12.3
14:20 1018 30.06 847 25.01 -6.2 20.8 69 -11 12.2
14:25 1018 30.06 847 25.01 -6.3 20.7 70 -10.9 12.4
14:30 1018 30.06 847 25.01 -6.3 20.6 70 -11 12.2
14:35 1018 30.06 847 25.01 -6.3 20.6 69 -11.1 12.1
14:40 1018 30.06 847 25.01 -6.4 20.5 70 -11 12.2
14:45 1018 30.06 847 25.01 -6.4 20.5 72 -10.7 12.8
14:50 1018 30.06 848 25.04 -6.7 20 73 -10.7 12.8
14:55 1018 30.06 848 25.04 -6.7 19.9 73 -10.8 12.6
15:00 1019 30.09 848 25.04 -6.7 20 72 -11 12.2
15:05 1019 30.09 848 25.04 -6.7 19.9 69 -11.5 11.2
15:10 1019 30.09 848 25.04 -6.9 19.6 70 -11.5 11.3
15:15 1019 30.09 848 25.04 -6.9 19.6 69 -11.6 11.1
15:20 1019 30.09 848 25.04 -7 19.5 69 -11.7 11
15:25 1019 30.09 848 25.04 -6.8 19.7 69 -11.7 11
15:30 1019 30.09 848 25.04 -6.8 19.8 70 -11.5 11.4
15:35 1019 30.09 848 25.04 -6.7 19.9 69 -11.5 11.4
15:40 1019 30.09 848 25.04 -6.7 19.9 69 -11.5 11.4
15:45 1019 30.09 848 25.04 -6.6 20 69 -11.5 11.3
15:50 1019 30.09 848 25.04 -6.6 20.1 69 -11.4 11.4
15:55 1019 30.09 848 25.04 -6.8 19.8 69 -11.5 11.3
16:00 1019 30.09 848 25.04 -7.1 19.2 71 -11.6 11.2
16:05 1019 30.09 849 25.07 -7.5 18.5 72 -11.8 10.8
16:10 1019 30.09 849 25.07 -7.7 18.2 72 -11.9 10.6
16:15 1020 30.12 849 25.07 -7.5 18.5 71 -11.8 10.7
16:20 1020 30.12 849 25.07 -7.8 18 72 -12 10.5
16:25 1020 30.12 849 25.07 -8 17.7 72 -12.1 10.2
16:30 1020 30.12 849 25.07 -8 17.6 72 -12.2 10.1
16:35 1020 30.12 849 25.07 -8.1 17.4 73 -12 10.3
16:40 1020 30.12 849 25.07 -7.8 17.9 73 -11.9 10.5
16:45 1020 30.12 849 25.07 -7.9 17.7 73 -12 10.3
16:50 1020 30.12 849 25.07 -8.2 17.2 74 -12.2 10.1
16:55 1020 30.12 849 25.07 -8.3 17.1 73 -12.3 9.9
17:00 1020 30.12 849 25.07 -8.4 16.8 73 -12.5 9.6
17:05 1020 30.12 849 25.07 -8.6 16.5 73 -12.6 9.4
17:10 1020 30.12 849 25.07 -8.7 16.4 73 -12.6 9.3
17:15 1020 30.12 850 25.1 -8.8 16.2 74 -12.7 9.1
17:20 1020 30.12 850 25.1 -8.8 16.2 71 -13.1 8.5
17:25 1021 30.15 850 25.1 -8.7 16.3 73 -12.8 9
17:30 1021 30.15 850 25.1 -8.5 16.6 72 -12.7 9.1
17:35 1021 30.15 850 25.1 -8.4 16.9 71 -12.7 9.1
17:40 1021 30.15 850 25.1 -8.3 17 70 -12.9 8.7
17:45 1021 30.15 850 25.1 -8.3 17 70 -12.9 8.8
17:50 1021 30.15 850 25.1 -8.4 16.9 70 -12.9 8.7
17:55 1021 30.15 850 25.1 -8.5 16.7 71 -12.9 8.7
18:00 1021 30.15 850 25.1 -8.5 16.7 70 -13.1 8.4
18:05 1021 30.15 850 25.1 -8.5 16.8 69 -13.2 8.2
18:10 1021 30.15 850 25.1 -8.5 16.7 69 -13.2 8.3
18:15 1021 30.15 850 25.1 -8.5 16.6 69 -13.2 8.3
18:20 1021 30.15 850 25.1 -8.6 16.6 69 -13.3 8.1
18:25 1021 30.15 850 25.1 -8.6 16.6 69 -13.3 8.1
18:30 1021 30.15 850 25.1 -8.6 16.5 69 -13.3 8.1
18:35 1021 30.15 850 25.1 -8.8 16.3 70 -13.2 8.2
18:40 1021 30.15 850 25.1 -8.8 16.1 71 -13.2 8.3
18:45 1021 30.15 850 25.1 -8.9 16 71 -13.2 8.3
18:50 1021 30.15 850 25.1 -8.9 16.1 71 -13.2 8.3
18:55 1021 30.15 850 25.1 -8.9 16.1 72 -13.1 8.5
19:00 1021 30.15 850 25.1 -8.9 16 72 -13 8.6
19:05 1021 30.15 850 25.1 -9.1 15.6 74 -13 8.6
19:10 1021 30.15 850 25.1 -9.1 15.7 74 -12.9 8.8
19:15 1021 30.15 850 25.1 -9.2 15.5 77 -12.5 9.4
19:20 1021 30.15 850 25.1 -9.5 14.9 80 -12.4 9.7
19:25 1021 30.15 850 25.1 -9.5 14.9 80 -12.3 9.8
19:30 1021 30.15 850 25.1 -9.7 14.6 81 -12.3 9.9
19:35 1021 30.15 850 25.1 -9.6 14.6 81 -12.3 9.9
19:40 1021 30.15 850 25.1 -9.5 14.9 80 -12.3 9.9
19:45 1021 30.15 850 25.1 -9.4 15.2 79 -12.4 9.7
19:50 1021 30.15 850 25.1 -9.4 15.2 80 -12.2 10
19:55 1021 30.15 850 25.1 -9.3 15.2 80 -12.2 10.1
20:00 1021 30.15 850 25.1 -9.3 15.2 80 -12.1 10.2
20:05 1021 30.15 851 25.13 -9.3 15.3 81 -12 10.5
20:10 1021 30.15 851 25.13 -9.2 15.4 82 -11.8 10.8
20:15 1021 30.15 851 25.13 -9.2 15.4 83 -11.6 11.1
20:20 1022 30.18 851 25.13 -9.3 15.3 84 -11.6 11.2
20:25 1022 30.18 851 25.13 -9.3 15.3 84 -11.6 11.2
20:30 1022 30.18 851 25.13 -9.3 15.2 82 -11.8 10.8
20:35 1022 30.18 851 25.13 -9.4 15.1 83 -11.7 10.9
20:40 1022 30.18 851 25.13 -9.4 15 84 -11.7 10.9
20:45 1022 30.18 851 25.13 -9.5 14.9 84 -11.7 11
20:50 1022 30.18 851 25.13 -9.5 14.8 85 -11.7 11
20:55 1022 30.18 851 25.13 -9.6 14.7 84 -11.8 10.7
21:00 1022 30.18 851 25.13 -9.7 14.6 85 -11.8 10.8
21:05 1022 30.18 851 25.13 -9.7 14.5 85 -11.8 10.8
21:10 1022 30.18 851 25.13 -9.7 14.6 85 -11.7 11
21:15 1022 30.18 851 25.13 -9.7 14.6 86 -11.6 11
21:20 1022 30.18 851 25.13 -9.7 14.5 86 -11.7 11
21:25 1022 30.18 851 25.13 -9.8 14.4 86 -11.7 10.9
21:30 1022 30.18 851 25.13 -9.7 14.5 85 -11.8 10.8
21:35 1022 30.18 851 25.13 -9.7 14.5 85 -11.8 10.8
21:40 1022 30.18 851 25.13 -9.8 14.3 86 -11.8 10.8
21:45 1022 30.18 851 25.13 -9.9 14.2 86 -11.8 10.7
21:50 1022 30.18 851 25.13 -10 14.1 87 -11.8 10.8
21:55 1022 30.18 851 25.13 -9.9 14.1 87 -11.7 10.9
22:00 1022 30.18 851 25.13 -10 13.9 87 -11.8 10.7
22:05 1022 30.18 851 25.13 -10.5 13.2 88 -12.1 10.2
22:10 1022 30.18 851 25.13 -10.5 13.1 88 -12 10.3
22:15 1022 30.18 852 25.16 -10.3 13.4 89 -11.8 10.7
22:20 1022 30.18 852 25.16 -10.4 13.4 89 -11.9 10.6
22:25 1022 30.18 852 25.16 -10.4 13.3 89 -11.9 10.7
22:30 1022 30.18 852 25.16 -10.6 13 89 -12 10.5
22:35 1023 30.21 852 25.16 -10.5 13.2 89 -11.9 10.6
22:40 1023 30.21 852 25.16 -10.3 13.5 88 -11.9 10.7
22:45 1023 30.21 852 25.16 -10.2 13.7 88 -11.8 10.8
22:50 1023 30.21 852 25.16 -10.1 13.8 88 -11.7 11
22:55 1023 30.21 852 25.16 -10.2 13.6 88 -11.8 10.8
23:00 1023 30.21 852 25.16 -10.4 13.3 89 -11.8 10.7
23:05 1023 30.21 852 25.16 -10.5 13.1 89 -11.9 10.5
23:10 1023 30.21 852 25.16 -10.5 13.2 89 -12 10.4
23:15 1023 30.21 852 25.16 -10.5 13.1 90 -11.9 10.6
23:20 1023 30.21 852 25.16 -10.5 13.2 90 -11.9 10.7
23:25 1023 30.21 852 25.16 -10.4 13.4 89 -11.8 10.7
23:30 1023 30.21 852 25.16 -10.3 13.4 89 -11.7 10.9
23:35 1023 30.21 852 25.16 -10.2 13.6 88 -11.8 10.8
23:40 1023 30.21 852 25.16 -10.3 13.5 89 -11.8 10.8
23:45 1023 30.21 852 25.16 -10.3 13.4 89 -11.8 10.8
23:50 1023 30.21 852 25.16 -10.3 13.5 89 -11.7 10.9
23:55 1023 30.21 852 25.16 -10.2 13.6 88 -11.8 10.7
24:00 1023 30.21 852 25.16 -10.3 13.5 88 -11.9 10.5